SWA1354 KSMF-KDEN
Flight info
| Callsign | SWA1354 |
|---|---|
| Flight time | 1h 58m |
| Altitude | 41000 |
| Route | SCTWN4 RALEY JSICA LUDOH BUMMP SSKII3 |
| Aircraft | B736/M-SDE2E3FGHIRWXY/LB1 |
Departure
| Time | 2026-05-06 09:42 |
|---|---|
| Airport | Sacramento International Airport (KSMF) |
Arrival
| Time | 2026-05-06 11:40 |
|---|---|
| Airport | Denver International Airport (KDEN) |
| Time | Latitude | Longitude | Altitude | Speed | Heading |
|---|---|---|---|---|---|
| 2026-05-06 09:17 | 38.69627 | -121.59459 | 33 ft | 0 kts | 181° |
| 2026-05-06 09:33 | 38.69631 | -121.59458 | 31 ft | 2 kts | 181° |
| 2026-05-06 09:33 | 38.69648 | -121.59457 | 33 ft | 2 kts | 189° |
| 2026-05-06 09:34 | 38.69664 | -121.59452 | 32 ft | 2 kts | 199° |
| 2026-05-06 09:34 | 38.69678 | -121.59443 | 33 ft | 2 kts | 215° |
| 2026-05-06 09:34 | 38.69690 | -121.59429 | 31 ft | 2 kts | 238° |
| 2026-05-06 09:34 | 38.69697 | -121.59410 | 32 ft | 2 kts | 259° |
| 2026-05-06 09:35 | 38.69698 | -121.59392 | 33 ft | 1 kts | 269° |
| 2026-05-06 09:35 | 38.69698 | -121.59388 | 33 ft | 0 kts | 270° |
| 2026-05-06 09:37 | 38.69698 | -121.59391 | 33 ft | 2 kts | 270° |
| 2026-05-06 09:37 | 38.69699 | -121.59448 | 32 ft | 11 kts | 271° |
| 2026-05-06 09:37 | 38.69700 | -121.59579 | 34 ft | 17 kts | 270° |
| 2026-05-06 09:37 | 38.69702 | -121.59738 | 33 ft | 18 kts | 270° |
| 2026-05-06 09:38 | 38.69747 | -121.59862 | 32 ft | 18 kts | 357° |
| 2026-05-06 09:38 | 38.69867 | -121.59863 | 32 ft | 17 kts | 360° |
| 2026-05-06 09:38 | 38.69982 | -121.59861 | 34 ft | 16 kts | 0° |
| 2026-05-06 09:38 | 38.70095 | -121.59860 | 34 ft | 17 kts | 360° |
| 2026-05-06 09:39 | 38.70216 | -121.59857 | 33 ft | 18 kts | 2° |
| 2026-05-06 09:39 | 38.70338 | -121.59855 | 34 ft | 17 kts | 1° |
| 2026-05-06 09:39 | 38.70460 | -121.59852 | 35 ft | 19 kts | 1° |
| 2026-05-06 09:39 | 38.70604 | -121.59850 | 34 ft | 23 kts | 359° |
| 2026-05-06 09:40 | 38.70676 | -121.59850 | 34 ft | 7 kts | 359° |
| 2026-05-06 09:40 | 38.70716 | -121.59885 | 33 ft | 7 kts | 299° |
| 2026-05-06 09:40 | 38.70716 | -121.60062 | 33 ft | 13 kts | 253° |
| 2026-05-06 09:41 | 38.70641 | -121.60111 | 35 ft | 13 kts | 182° |
| 2026-05-06 09:41 | 38.70391 | -121.60115 | 37 ft | 70 kts | 180° |
| 2026-05-06 09:41 | 38.69668 | -121.60127 | 28 ft | 135 kts | 181° |
| 2026-05-06 09:41 | 38.68623 | -121.60137 | 362 ft | 156 kts | 179° |
| 2026-05-06 09:42 | 38.67498 | -121.60120 | 971 ft | 165 kts | 169° |
| 2026-05-06 09:42 | 38.66570 | -121.59282 | 1640 ft | 174 kts | 119° |
| 2026-05-06 09:42 | 38.66238 | -121.57743 | 2183 ft | 189 kts | 102° |
| 2026-05-06 09:42 | 38.65934 | -121.56013 | 2517 ft | 213 kts | 104° |
| 2026-05-06 09:43 | 38.65533 | -121.54044 | 2703 ft | 240 kts | 107° |
| 2026-05-06 09:43 | 38.65017 | -121.51945 | 3049 ft | 258 kts | 110° |
| 2026-05-06 09:43 | 38.64396 | -121.49747 | 3773 ft | 267 kts | 110° |
| 2026-05-06 09:43 | 38.63755 | -121.47503 | 4688 ft | 269 kts | 108° |
| 2026-05-06 09:44 | 38.63145 | -121.45244 | 5579 ft | 272 kts | 100° |
| 2026-05-06 09:44 | 38.63031 | -121.42834 | 6586 ft | 270 kts | 84° |
| 2026-05-06 09:44 | 38.63108 | -121.40438 | 7575 ft | 271 kts | 84° |
| 2026-05-06 09:44 | 38.63195 | -121.38011 | 8506 ft | 275 kts | 84° |
| 2026-05-06 09:45 | 38.63281 | -121.35544 | 9439 ft | 279 kts | 85° |
| 2026-05-06 09:45 | 38.63361 | -121.33056 | 10342 ft | 283 kts | 85° |
| 2026-05-06 09:45 | 38.63441 | -121.30452 | 10700 ft | 307 kts | 85° |
| 2026-05-06 09:45 | 38.63525 | -121.27614 | 10897 ft | 334 kts | 86° |
| 2026-05-06 09:46 | 38.63609 | -121.24553 | 11328 ft | 350 kts | 86° |
| 2026-05-06 09:46 | 38.63690 | -121.21412 | 12062 ft | 355 kts | 86° |
| 2026-05-06 09:46 | 38.63769 | -121.18236 | 12871 ft | 359 kts | 86° |
| 2026-05-06 09:46 | 38.63848 | -121.15024 | 13650 ft | 364 kts | 85° |
| 2026-05-06 09:47 | 38.63926 | -121.11770 | 14353 ft | 368 kts | 85° |
| 2026-05-06 09:47 | 38.64005 | -121.08477 | 15052 ft | 371 kts | 85° |
| 2026-05-06 09:47 | 38.64082 | -121.05167 | 15768 ft | 375 kts | 85° |
| 2026-05-06 09:47 | 38.64161 | -121.01818 | 16486 ft | 378 kts | 85° |
| 2026-05-06 09:48 | 38.64238 | -120.98483 | 17151 ft | 382 kts | 85° |
| 2026-05-06 09:48 | 38.64318 | -120.95027 | 17814 ft | 386 kts | 85° |
| 2026-05-06 09:48 | 38.64395 | -120.91624 | 18477 ft | 389 kts | 85° |
| 2026-05-06 09:48 | 38.64472 | -120.88140 | 19049 ft | 393 kts | 85° |
| 2026-05-06 09:49 | 38.64549 | -120.84635 | 19631 ft | 396 kts | 85° |
| 2026-05-06 09:49 | 38.64625 | -120.81092 | 20229 ft | 399 kts | 85° |
| 2026-05-06 09:49 | 38.64702 | -120.77536 | 20830 ft | 402 kts | 85° |
| 2026-05-06 09:49 | 38.64777 | -120.73958 | 21409 ft | 404 kts | 85° |
| 2026-05-06 09:50 | 38.64851 | -120.70339 | 21953 ft | 408 kts | 85° |
| 2026-05-06 09:50 | 38.64848 | -120.66687 | 22498 ft | 413 kts | 87° |
| 2026-05-06 09:50 | 38.64776 | -120.62995 | 23051 ft | 416 kts | 88° |
| 2026-05-06 09:50 | 38.64678 | -120.59279 | 23608 ft | 420 kts | 88° |
| 2026-05-06 09:51 | 38.64574 | -120.55535 | 24074 ft | 422 kts | 88° |
| 2026-05-06 09:51 | 38.64473 | -120.51774 | 24541 ft | 425 kts | 88° |
| 2026-05-06 09:51 | 38.64376 | -120.47978 | 25006 ft | 426 kts | 88° |
| 2026-05-06 09:51 | 38.64283 | -120.44182 | 25474 ft | 428 kts | 88° |
| 2026-05-06 09:52 | 38.64192 | -120.40362 | 25925 ft | 430 kts | 88° |
| 2026-05-06 09:52 | 38.64103 | -120.36572 | 26356 ft | 434 kts | 88° |
| 2026-05-06 09:52 | 38.64013 | -120.32702 | 26759 ft | 436 kts | 87° |
| 2026-05-06 09:52 | 38.63921 | -120.28819 | 27182 ft | 439 kts | 88° |
| 2026-05-06 09:53 | 38.63827 | -120.24913 | 27591 ft | 440 kts | 88° |
| 2026-05-06 09:53 | 38.63731 | -120.20990 | 28019 ft | 442 kts | 88° |
| 2026-05-06 09:53 | 38.63633 | -120.17038 | 28418 ft | 445 kts | 87° |
| 2026-05-06 09:53 | 38.63534 | -120.13071 | 28806 ft | 447 kts | 87° |
| 2026-05-06 09:54 | 38.63433 | -120.09100 | 29156 ft | 450 kts | 87° |
| 2026-05-06 09:54 | 38.63330 | -120.05077 | 29449 ft | 454 kts | 87° |
| 2026-05-06 09:54 | 38.63224 | -120.01029 | 29845 ft | 455 kts | 88° |
| 2026-05-06 09:54 | 38.63117 | -119.97002 | 30405 ft | 452 kts | 87° |
| 2026-05-06 09:55 | 38.63012 | -119.93000 | 30944 ft | 448 kts | 87° |
| 2026-05-06 09:55 | 38.62901 | -119.89019 | 31422 ft | 446 kts | 87° |
| 2026-05-06 09:55 | 38.62790 | -119.85067 | 31849 ft | 445 kts | 87° |
| 2026-05-06 09:55 | 38.62678 | -119.81104 | 32286 ft | 444 kts | 87° |
| 2026-05-06 09:56 | 38.62566 | -119.77154 | 32627 ft | 444 kts | 87° |
| 2026-05-06 09:56 | 38.62453 | -119.73210 | 32999 ft | 443 kts | 87° |
| 2026-05-06 09:56 | 38.62339 | -119.69282 | 33418 ft | 441 kts | 87° |
| 2026-05-06 09:56 | 38.62224 | -119.65372 | 33812 ft | 439 kts | 87° |
| 2026-05-06 09:57 | 38.62109 | -119.61471 | 34132 ft | 439 kts | 87° |
| 2026-05-06 09:57 | 38.61996 | -119.57625 | 34428 ft | 438 kts | 86° |
| 2026-05-06 09:57 | 38.61878 | -119.53735 | 34771 ft | 436 kts | 86° |
| 2026-05-06 09:57 | 38.61761 | -119.49865 | 35041 ft | 437 kts | 86° |
| 2026-05-06 09:58 | 38.61641 | -119.45978 | 35277 ft | 437 kts | 86° |
| 2026-05-06 09:58 | 38.61521 | -119.42091 | 35556 ft | 436 kts | 86° |
| 2026-05-06 09:58 | 38.61399 | -119.38225 | 35858 ft | 435 kts | 86° |
| 2026-05-06 09:58 | 38.61275 | -119.34371 | 36139 ft | 434 kts | 86° |
| 2026-05-06 09:59 | 38.61151 | -119.30515 | 36401 ft | 433 kts | 86° |
| 2026-05-06 09:59 | 38.61026 | -119.26666 | 36648 ft | 433 kts | 86° |
| 2026-05-06 09:59 | 38.60900 | -119.22821 | 36885 ft | 433 kts | 86° |
| 2026-05-06 09:59 | 38.60773 | -119.18971 | 37081 ft | 434 kts | 86° |
| 2026-05-06 10:00 | 38.60645 | -119.15116 | 37319 ft | 433 kts | 86° |
| 2026-05-06 10:00 | 38.60514 | -119.11274 | 37557 ft | 432 kts | 86° |
| 2026-05-06 10:00 | 38.60384 | -119.07478 | 37769 ft | 432 kts | 86° |
| 2026-05-06 10:00 | 38.60252 | -119.03643 | 37965 ft | 432 kts | 86° |
| 2026-05-06 10:01 | 38.60119 | -118.99806 | 38185 ft | 432 kts | 86° |
| 2026-05-06 10:01 | 38.59984 | -118.95973 | 38423 ft | 431 kts | 86° |
| 2026-05-06 10:01 | 38.59893 | -118.93391 | 38590 ft | 431 kts | 85° |
| 2026-05-06 10:01 | 38.59756 | -118.89561 | 38778 ft | 431 kts | 85° |
| 2026-05-06 10:02 | 38.59618 | -118.85739 | 38918 ft | 431 kts | 85° |
| 2026-05-06 10:02 | 38.59480 | -118.81907 | 39056 ft | 432 kts | 86° |
| 2026-05-06 10:02 | 38.59339 | -118.78071 | 39191 ft | 432 kts | 86° |
| 2026-05-06 10:02 | 38.59197 | -118.74227 | 39354 ft | 432 kts | 86° |
| 2026-05-06 10:03 | 38.59054 | -118.70386 | 39490 ft | 433 kts | 86° |
| 2026-05-06 10:03 | 38.58909 | -118.66536 | 39605 ft | 433 kts | 86° |
| 2026-05-06 10:03 | 38.58763 | -118.62695 | 39741 ft | 433 kts | 86° |
| 2026-05-06 10:03 | 38.58616 | -118.58848 | 39861 ft | 433 kts | 86° |
| 2026-05-06 10:04 | 38.58319 | -118.51192 | 40054 ft | 434 kts | 86° |
| 2026-05-06 10:04 | 38.58015 | -118.43468 | 40217 ft | 435 kts | 86° |
| 2026-05-06 10:05 | 38.57705 | -118.35740 | 40417 ft | 436 kts | 86° |
| 2026-05-06 10:05 | 38.57390 | -118.27984 | 40540 ft | 437 kts | 86° |
| 2026-05-06 10:06 | 38.57058 | -118.20228 | 40710 ft | 437 kts | 87° |
| 2026-05-06 10:06 | 38.56664 | -118.12461 | 40864 ft | 438 kts | 88° |
| 2026-05-06 10:07 | 38.56460 | -118.08590 | 40965 ft | 437 kts | 88° |
| 2026-05-06 10:07 | 38.56256 | -118.04707 | 41006 ft | 438 kts | 87° |
| 2026-05-06 10:07 | 38.55851 | -117.96927 | 41001 ft | 441 kts | 88° |
| 2026-05-06 10:08 | 38.55440 | -117.89093 | 40993 ft | 443 kts | 88° |
| 2026-05-06 10:08 | 38.55026 | -117.81292 | 40995 ft | 443 kts | 88° |
| 2026-05-06 10:09 | 38.54603 | -117.73425 | 40986 ft | 444 kts | 88° |
| 2026-05-06 10:09 | 38.54175 | -117.65566 | 40994 ft | 443 kts | 88° |
| 2026-05-06 10:10 | 38.53742 | -117.57721 | 40984 ft | 442 kts | 88° |
| 2026-05-06 10:10 | 38.53306 | -117.49901 | 40992 ft | 440 kts | 88° |
| 2026-05-06 10:11 | 38.52867 | -117.42101 | 41001 ft | 439 kts | 88° |
| 2026-05-06 10:11 | 38.52425 | -117.34343 | 40999 ft | 438 kts | 88° |
| 2026-05-06 10:12 | 38.51995 | -117.26648 | 41000 ft | 436 kts | 87° |
| 2026-05-06 10:12 | 38.51783 | -117.18894 | 41007 ft | 434 kts | 85° |
| 2026-05-06 10:13 | 38.51643 | -117.11189 | 41011 ft | 435 kts | 85° |
| 2026-05-06 10:13 | 38.51480 | -117.03463 | 41018 ft | 436 kts | 86° |
| 2026-05-06 10:14 | 38.51291 | -116.95703 | 41009 ft | 438 kts | 86° |
| 2026-05-06 10:14 | 38.51088 | -116.87974 | 41007 ft | 439 kts | 86° |
| 2026-05-06 10:15 | 38.50877 | -116.80170 | 41015 ft | 440 kts | 86° |
| 2026-05-06 10:15 | 38.50663 | -116.72335 | 41019 ft | 442 kts | 86° |
| 2026-05-06 10:16 | 38.50440 | -116.64470 | 40998 ft | 443 kts | 86° |
| 2026-05-06 10:16 | 38.50211 | -116.56623 | 41002 ft | 443 kts | 86° |
| 2026-05-06 10:17 | 38.49977 | -116.48760 | 41005 ft | 443 kts | 86° |
| 2026-05-06 10:17 | 38.49740 | -116.40914 | 40998 ft | 442 kts | 86° |
| 2026-05-06 10:18 | 38.49498 | -116.33111 | 41000 ft | 441 kts | 86° |
| 2026-05-06 10:18 | 38.49250 | -116.25287 | 41013 ft | 441 kts | 86° |
| 2026-05-06 10:19 | 38.48998 | -116.17458 | 41001 ft | 442 kts | 86° |
| 2026-05-06 10:19 | 38.48740 | -116.09604 | 40993 ft | 443 kts | 86° |
| 2026-05-06 10:20 | 38.48476 | -116.01759 | 40989 ft | 442 kts | 86° |
| 2026-05-06 10:20 | 38.48207 | -115.93917 | 41007 ft | 442 kts | 86° |
| 2026-05-06 10:21 | 38.47933 | -115.86089 | 41009 ft | 442 kts | 86° |
| 2026-05-06 10:21 | 38.47655 | -115.78253 | 40986 ft | 442 kts | 86° |
| 2026-05-06 10:22 | 38.47370 | -115.70407 | 40993 ft | 442 kts | 86° |
| 2026-05-06 10:22 | 38.47082 | -115.62618 | 41001 ft | 443 kts | 86° |
| 2026-05-06 10:23 | 38.46788 | -115.54779 | 40991 ft | 444 kts | 86° |
| 2026-05-06 10:23 | 38.46487 | -115.46910 | 40984 ft | 445 kts | 87° |
| 2026-05-06 10:24 | 38.46179 | -115.39028 | 40983 ft | 445 kts | 87° |
| 2026-05-06 10:24 | 38.45866 | -115.31123 | 40995 ft | 446 kts | 87° |
| 2026-05-06 10:25 | 38.45547 | -115.23199 | 40984 ft | 448 kts | 87° |
| 2026-05-06 10:25 | 38.45222 | -115.15265 | 40974 ft | 449 kts | 87° |
| 2026-05-06 10:26 | 38.44890 | -115.07307 | 40970 ft | 449 kts | 87° |
| 2026-05-06 10:26 | 38.44552 | -114.99339 | 40971 ft | 450 kts | 87° |
| 2026-05-06 10:27 | 38.44209 | -114.91368 | 40967 ft | 450 kts | 87° |
| 2026-05-06 10:27 | 38.43860 | -114.83404 | 40961 ft | 448 kts | 87° |
| 2026-05-06 10:28 | 38.43507 | -114.75498 | 40968 ft | 446 kts | 87° |
| 2026-05-06 10:28 | 38.43152 | -114.67621 | 40968 ft | 444 kts | 88° |
| 2026-05-06 10:29 | 38.42794 | -114.59778 | 40965 ft | 443 kts | 88° |
| 2026-05-06 10:29 | 38.42431 | -114.51933 | 40964 ft | 443 kts | 88° |
| 2026-05-06 10:30 | 38.42062 | -114.44062 | 40966 ft | 445 kts | 88° |
| 2026-05-06 10:30 | 38.41688 | -114.36210 | 40969 ft | 448 kts | 88° |
| 2026-05-06 10:31 | 38.41304 | -114.28261 | 40964 ft | 451 kts | 88° |
| 2026-05-06 10:31 | 38.40911 | -114.20261 | 40958 ft | 453 kts | 88° |
| 2026-05-06 10:32 | 38.40511 | -114.12237 | 40946 ft | 454 kts | 88° |
| 2026-05-06 10:32 | 38.40104 | -114.04197 | 40950 ft | 455 kts | 88° |
| 2026-05-06 10:33 | 38.39692 | -113.96140 | 40938 ft | 455 kts | 88° |
| 2026-05-06 10:33 | 38.39274 | -113.88105 | 40938 ft | 454 kts | 88° |
| 2026-05-06 10:34 | 38.38855 | -113.80141 | 40916 ft | 451 kts | 89° |
| 2026-05-06 10:34 | 38.38430 | -113.72173 | 40915 ft | 449 kts | 89° |
| 2026-05-06 10:35 | 38.38002 | -113.64247 | 40922 ft | 448 kts | 89° |
| 2026-05-06 10:35 | 38.37572 | -113.56330 | 40915 ft | 448 kts | 89° |
| 2026-05-06 10:36 | 38.37129 | -113.48390 | 40909 ft | 449 kts | 89° |
| 2026-05-06 10:36 | 38.36688 | -113.40453 | 40945 ft | 451 kts | 89° |
| 2026-05-06 10:37 | 38.36237 | -113.32446 | 40967 ft | 454 kts | 89° |
| 2026-05-06 10:37 | 38.35776 | -113.24392 | 40997 ft | 458 kts | 89° |
| 2026-05-06 10:38 | 38.35304 | -113.16268 | 41024 ft | 461 kts | 89° |
| 2026-05-06 10:38 | 38.34824 | -113.08101 | 41051 ft | 463 kts | 90° |
| 2026-05-06 10:39 | 38.34337 | -112.99904 | 41053 ft | 465 kts | 90° |
| 2026-05-06 10:39 | 38.33842 | -112.91680 | 41039 ft | 466 kts | 90° |
| 2026-05-06 10:40 | 38.33343 | -112.83493 | 40999 ft | 466 kts | 90° |
| 2026-05-06 10:40 | 38.32836 | -112.75271 | 40979 ft | 465 kts | 90° |
| 2026-05-06 10:41 | 38.32325 | -112.67057 | 40933 ft | 465 kts | 90° |
| 2026-05-06 10:41 | 38.31808 | -112.58853 | 40891 ft | 464 kts | 90° |
| 2026-05-06 10:42 | 38.31287 | -112.50664 | 40887 ft | 464 kts | 90° |
| 2026-05-06 10:42 | 38.30761 | -112.42482 | 40891 ft | 464 kts | 91° |
| 2026-05-06 10:43 | 38.30228 | -112.34291 | 40894 ft | 465 kts | 91° |
| 2026-05-06 10:44 | 38.29418 | -112.21955 | 40873 ft | 469 kts | 92° |
| 2026-05-06 10:44 | 38.28862 | -112.13665 | 40879 ft | 471 kts | 92° |
| 2026-05-06 10:45 | 38.28299 | -112.05335 | 40871 ft | 473 kts | 93° |
| 2026-05-06 10:45 | 38.27728 | -111.96994 | 40862 ft | 473 kts | 93° |
| 2026-05-06 10:46 | 38.27156 | -111.88693 | 40861 ft | 474 kts | 93° |
| 2026-05-06 10:46 | 38.26573 | -111.80339 | 40853 ft | 474 kts | 93° |
| 2026-05-06 10:47 | 38.25985 | -111.71991 | 40847 ft | 473 kts | 93° |
| 2026-05-06 10:47 | 38.25392 | -111.63650 | 40845 ft | 473 kts | 93° |
| 2026-05-06 10:48 | 38.24895 | -111.56731 | 40846 ft | 472 kts | 93° |
| 2026-05-06 10:48 | 38.24292 | -111.48414 | 40827 ft | 472 kts | 94° |
| 2026-05-06 10:49 | 38.23685 | -111.40115 | 40800 ft | 471 kts | 94° |
| 2026-05-06 10:49 | 38.23073 | -111.31825 | 40813 ft | 470 kts | 94° |
| 2026-05-06 10:50 | 38.22455 | -111.23541 | 40794 ft | 471 kts | 94° |
| 2026-05-06 10:50 | 38.21834 | -111.15286 | 40800 ft | 471 kts | 94° |
| 2026-05-06 10:51 | 38.21201 | -111.06973 | 40791 ft | 473 kts | 94° |
| 2026-05-06 10:51 | 38.20561 | -110.98634 | 40815 ft | 474 kts | 94° |
| 2026-05-06 10:52 | 38.19913 | -110.90282 | 40846 ft | 475 kts | 94° |
| 2026-05-06 10:52 | 38.19258 | -110.81904 | 40864 ft | 476 kts | 95° |
| 2026-05-06 10:53 | 38.18596 | -110.73520 | 40864 ft | 477 kts | 95° |
| 2026-05-06 10:53 | 38.17932 | -110.65183 | 40856 ft | 477 kts | 95° |
| 2026-05-06 10:54 | 38.17259 | -110.56794 | 40781 ft | 477 kts | 96° |
| 2026-05-06 10:54 | 38.16578 | -110.48414 | 40799 ft | 477 kts | 96° |
| 2026-05-06 10:55 | 38.15892 | -110.40028 | 40797 ft | 477 kts | 96° |
| 2026-05-06 10:55 | 38.15201 | -110.31649 | 40803 ft | 479 kts | 96° |
| 2026-05-06 10:56 | 38.14500 | -110.23230 | 40798 ft | 480 kts | 96° |
| 2026-05-06 10:56 | 38.13791 | -110.14775 | 40807 ft | 482 kts | 96° |
| 2026-05-06 10:57 | 38.13390 | -110.06261 | 40806 ft | 484 kts | 92° |
| 2026-05-06 10:57 | 38.13216 | -109.97710 | 40811 ft | 485 kts | 91° |
| 2026-05-06 10:58 | 38.13030 | -109.89136 | 40815 ft | 486 kts | 92° |
| 2026-05-06 10:58 | 38.12801 | -109.80543 | 40812 ft | 487 kts | 92° |
| 2026-05-06 10:59 | 38.12550 | -109.71939 | 40819 ft | 487 kts | 92° |
| 2026-05-06 10:59 | 38.12293 | -109.63386 | 40811 ft | 487 kts | 92° |
| 2026-05-06 11:00 | 38.12031 | -109.54785 | 40821 ft | 488 kts | 92° |
| 2026-05-06 11:00 | 38.11763 | -109.46169 | 40840 ft | 490 kts | 92° |
| 2026-05-06 11:01 | 38.11486 | -109.37479 | 40847 ft | 493 kts | 92° |
| 2026-05-06 11:01 | 38.11201 | -109.28767 | 40851 ft | 495 kts | 92° |
| 2026-05-06 11:02 | 38.10909 | -109.20008 | 40841 ft | 496 kts | 92° |
| 2026-05-06 11:02 | 38.10613 | -109.11310 | 40852 ft | 496 kts | 92° |
| 2026-05-06 11:03 | 38.10308 | -109.02543 | 40849 ft | 496 kts | 93° |
| 2026-05-06 11:03 | 38.10353 | -108.93812 | 40832 ft | 495 kts | 76° |
| 2026-05-06 11:03 | 38.11449 | -108.89711 | 40865 ft | 489 kts | 62° |
| 2026-05-06 11:04 | 38.12965 | -108.85842 | 40854 ft | 489 kts | 60° |
| 2026-05-06 11:04 | 38.16104 | -108.78175 | 40836 ft | 489 kts | 60° |
| 2026-05-06 11:05 | 38.19207 | -108.70473 | 40836 ft | 490 kts | 61° |
| 2026-05-06 11:05 | 38.22261 | -108.62707 | 40844 ft | 491 kts | 62° |
| 2026-05-06 11:06 | 38.25301 | -108.54905 | 40840 ft | 492 kts | 62° |
| 2026-05-06 11:06 | 38.28341 | -108.47082 | 40832 ft | 494 kts | 62° |
| 2026-05-06 11:07 | 38.31389 | -108.39229 | 40819 ft | 495 kts | 62° |
| 2026-05-06 11:07 | 38.34443 | -108.31344 | 40823 ft | 497 kts | 62° |
| 2026-05-06 11:08 | 38.37480 | -108.23480 | 40820 ft | 498 kts | 62° |
| 2026-05-06 11:08 | 38.40536 | -108.15551 | 40889 ft | 499 kts | 62° |
| 2026-05-06 11:09 | 38.43587 | -108.07608 | 40924 ft | 498 kts | 62° |
| 2026-05-06 11:09 | 38.46635 | -107.99653 | 40955 ft | 498 kts | 62° |
| 2026-05-06 11:10 | 38.49643 | -107.91713 | 40953 ft | 495 kts | 62° |
| 2026-05-06 11:10 | 38.52625 | -107.83795 | 40965 ft | 493 kts | 62° |
| 2026-05-06 11:10 | 38.54107 | -107.79857 | 40786 ft | 492 kts | 62° |
| 2026-05-06 11:11 | 38.55589 | -107.75916 | 40790 ft | 491 kts | 62° |
| 2026-05-06 11:11 | 38.58542 | -107.68050 | 40812 ft | 491 kts | 62° |
| 2026-05-06 11:12 | 38.61496 | -107.60164 | 40816 ft | 492 kts | 62° |
| 2026-05-06 11:12 | 38.64448 | -107.52261 | 40829 ft | 493 kts | 63° |
| 2026-05-06 11:13 | 38.67425 | -107.44322 | 40830 ft | 496 kts | 62° |
| 2026-05-06 11:13 | 38.70432 | -107.36402 | 40833 ft | 499 kts | 62° |
| 2026-05-06 11:14 | 38.73469 | -107.28383 | 40871 ft | 501 kts | 62° |
| 2026-05-06 11:14 | 38.76511 | -107.20313 | 40850 ft | 504 kts | 62° |
| 2026-05-06 11:15 | 38.79555 | -107.12209 | 40847 ft | 504 kts | 62° |
| 2026-05-06 11:15 | 38.82592 | -107.04100 | 40871 ft | 504 kts | 62° |
| 2026-05-06 11:16 | 38.85620 | -106.95997 | 40849 ft | 504 kts | 62° |
| 2026-05-06 11:16 | 38.88639 | -106.87891 | 40862 ft | 503 kts | 62° |
| 2026-05-06 11:17 | 38.91655 | -106.79776 | 40740 ft | 506 kts | 62° |
| 2026-05-06 11:17 | 38.93182 | -106.75661 | 40167 ft | 511 kts | 62° |
| 2026-05-06 11:17 | 38.94705 | -106.71547 | 39562 ft | 509 kts | 62° |
| 2026-05-06 11:17 | 38.96220 | -106.67448 | 38934 ft | 509 kts | 63° |
| 2026-05-06 11:18 | 38.97740 | -106.63333 | 38201 ft | 510 kts | 63° |
| 2026-05-06 11:18 | 38.99260 | -106.59212 | 37440 ft | 510 kts | 62° |
| 2026-05-06 11:18 | 39.00777 | -106.55090 | 36729 ft | 509 kts | 63° |
| 2026-05-06 11:18 | 39.02284 | -106.50976 | 36021 ft | 508 kts | 63° |
| 2026-05-06 11:19 | 39.03788 | -106.46864 | 35263 ft | 509 kts | 63° |
| 2026-05-06 11:19 | 39.05269 | -106.42806 | 34502 ft | 506 kts | 62° |
| 2026-05-06 11:19 | 39.06750 | -106.38744 | 33626 ft | 502 kts | 62° |
| 2026-05-06 11:19 | 39.08226 | -106.34689 | 32726 ft | 497 kts | 63° |
| 2026-05-06 11:20 | 39.09688 | -106.30670 | 31842 ft | 493 kts | 63° |
| 2026-05-06 11:20 | 39.11140 | -106.26677 | 30985 ft | 495 kts | 63° |
| 2026-05-06 11:20 | 39.12605 | -106.22641 | 30018 ft | 499 kts | 63° |
| 2026-05-06 11:20 | 39.14075 | -106.18585 | 29158 ft | 497 kts | 63° |
| 2026-05-06 11:21 | 39.15528 | -106.14571 | 28426 ft | 492 kts | 63° |
| 2026-05-06 11:21 | 39.16960 | -106.10608 | 27828 ft | 484 kts | 63° |
| 2026-05-06 11:21 | 39.18371 | -106.06702 | 27155 ft | 478 kts | 63° |
| 2026-05-06 11:21 | 39.19767 | -106.02834 | 26492 ft | 474 kts | 63° |
| 2026-05-06 11:22 | 39.21147 | -105.99008 | 25837 ft | 469 kts | 63° |
| 2026-05-06 11:22 | 39.22517 | -105.95203 | 25182 ft | 466 kts | 63° |
| 2026-05-06 11:22 | 39.23875 | -105.91425 | 24567 ft | 463 kts | 63° |
| 2026-05-06 11:22 | 39.25224 | -105.87668 | 23898 ft | 460 kts | 63° |
| 2026-05-06 11:23 | 39.26565 | -105.83931 | 23188 ft | 457 kts | 63° |
| 2026-05-06 11:23 | 39.27896 | -105.80213 | 22473 ft | 453 kts | 63° |
| 2026-05-06 11:23 | 39.29208 | -105.76542 | 21859 ft | 448 kts | 63° |
| 2026-05-06 11:23 | 39.30507 | -105.72908 | 21224 ft | 443 kts | 63° |
| 2026-05-06 11:24 | 39.31773 | -105.69359 | 20608 ft | 439 kts | 63° |
| 2026-05-06 11:24 | 39.33047 | -105.65798 | 20001 ft | 434 kts | 62° |
| 2026-05-06 11:24 | 39.34325 | -105.62284 | 19446 ft | 430 kts | 62° |
| 2026-05-06 11:24 | 39.35600 | -105.58805 | 18857 ft | 426 kts | 62° |
| 2026-05-06 11:25 | 39.36857 | -105.55373 | 18559 ft | 415 kts | 62° |
| 2026-05-06 11:25 | 39.38071 | -105.52049 | 18312 ft | 403 kts | 62° |
| 2026-05-06 11:25 | 39.39245 | -105.48822 | 18140 ft | 390 kts | 62° |
| 2026-05-06 11:25 | 39.40380 | -105.45697 | 17955 ft | 378 kts | 62° |
| 2026-05-06 11:26 | 39.41426 | -105.42633 | 17776 ft | 369 kts | 69° |
| 2026-05-06 11:26 | 39.41795 | -105.39381 | 17447 ft | 365 kts | 88° |
| 2026-05-06 11:26 | 39.41802 | -105.36111 | 16993 ft | 363 kts | 89° |
| 2026-05-06 11:26 | 39.41796 | -105.34172 | 16940 ft | 356 kts | 90° |
| 2026-05-06 11:27 | 39.41786 | -105.31691 | 16540 ft | 356 kts | 90° |
| 2026-05-06 11:27 | 39.41781 | -105.28521 | 16320 ft | 349 kts | 89° |
| 2026-05-06 11:27 | 39.41785 | -105.25392 | 15747 ft | 351 kts | 89° |
| 2026-05-06 11:27 | 39.41794 | -105.22247 | 15328 ft | 350 kts | 89° |
| 2026-05-06 11:28 | 39.41806 | -105.19111 | 14926 ft | 348 kts | 89° |
| 2026-05-06 11:28 | 39.41819 | -105.15999 | 14543 ft | 344 kts | 89° |
| 2026-05-06 11:28 | 39.41832 | -105.12919 | 14170 ft | 337 kts | 90° |
| 2026-05-06 11:28 | 39.41843 | -105.09931 | 13778 ft | 328 kts | 89° |
| 2026-05-06 11:29 | 39.41855 | -105.07034 | 13569 ft | 313 kts | 89° |
| 2026-05-06 11:29 | 39.41865 | -105.04291 | 13422 ft | 297 kts | 89° |
| 2026-05-06 11:29 | 39.41874 | -105.01691 | 13304 ft | 281 kts | 89° |
| 2026-05-06 11:29 | 39.41882 | -104.99255 | 13173 ft | 270 kts | 89° |
| 2026-05-06 11:30 | 39.41888 | -104.96862 | 13057 ft | 261 kts | 89° |
| 2026-05-06 11:30 | 39.41896 | -104.94552 | 12935 ft | 253 kts | 88° |
| 2026-05-06 11:30 | 39.42034 | -104.92290 | 12716 ft | 254 kts | 82° |
| 2026-05-06 11:30 | 39.42252 | -104.89994 | 12473 ft | 260 kts | 82° |
| 2026-05-06 11:31 | 39.42474 | -104.87647 | 12224 ft | 265 kts | 82° |
| 2026-05-06 11:31 | 39.42693 | -104.85277 | 11948 ft | 265 kts | 82° |
| 2026-05-06 11:31 | 39.42908 | -104.82920 | 11678 ft | 264 kts | 82° |
| 2026-05-06 11:31 | 39.43118 | -104.80565 | 11410 ft | 262 kts | 83° |
| 2026-05-06 11:32 | 39.43364 | -104.78272 | 11141 ft | 259 kts | 73° |
| 2026-05-06 11:32 | 39.44265 | -104.76300 | 10917 ft | 249 kts | 41° |
| 2026-05-06 11:32 | 39.45684 | -104.75111 | 10776 ft | 240 kts | 22° |
| 2026-05-06 11:32 | 39.47217 | -104.74330 | 10631 ft | 236 kts | 19° |
| 2026-05-06 11:33 | 39.48031 | -104.73951 | 10540 ft | 236 kts | 19° |
| 2026-05-06 11:33 | 39.49573 | -104.73240 | 10407 ft | 236 kts | 18° |
| 2026-05-06 11:33 | 39.51117 | -104.72523 | 10257 ft | 234 kts | 19° |
| 2026-05-06 11:33 | 39.52633 | -104.71811 | 10093 ft | 229 kts | 19° |
| 2026-05-06 11:34 | 39.54108 | -104.71113 | 9942 ft | 223 kts | 21° |
| 2026-05-06 11:34 | 39.55550 | -104.70425 | 9788 ft | 218 kts | 21° |
| 2026-05-06 11:34 | 39.56948 | -104.69756 | 9636 ft | 211 kts | 21° |
| 2026-05-06 11:34 | 39.58322 | -104.69095 | 9506 ft | 209 kts | 21° |
| 2026-05-06 11:35 | 39.59221 | -104.68662 | 9413 ft | 206 kts | 21° |
| 2026-05-06 11:35 | 39.60985 | -104.67811 | 9239 ft | 203 kts | 21° |
| 2026-05-06 11:35 | 39.62308 | -104.67173 | 9124 ft | 202 kts | 22° |
| 2026-05-06 11:35 | 39.63619 | -104.66542 | 9027 ft | 200 kts | 21° |
| 2026-05-06 11:36 | 39.65000 | -104.66223 | 8774 ft | 205 kts | 1° |
| 2026-05-06 11:36 | 39.66432 | -104.66253 | 8558 ft | 207 kts | 2° |
| 2026-05-06 11:36 | 39.67412 | -104.66234 | 8346 ft | 208 kts | 2° |
| 2026-05-06 11:36 | 39.68839 | -104.66212 | 8063 ft | 202 kts | 2° |
| 2026-05-06 11:37 | 39.70226 | -104.66196 | 7799 ft | 196 kts | 2° |
| 2026-05-06 11:37 | 39.71569 | -104.66181 | 7541 ft | 189 kts | 2° |
| 2026-05-06 11:37 | 39.72843 | -104.66167 | 7300 ft | 182 kts | 2° |
| 2026-05-06 11:37 | 39.74079 | -104.66153 | 7084 ft | 171 kts | 3° |
| 2026-05-06 11:38 | 39.75232 | -104.66140 | 7019 ft | 164 kts | 3° |
| 2026-05-06 11:38 | 39.76356 | -104.66127 | 6861 ft | 157 kts | 3° |
| 2026-05-06 11:38 | 39.77435 | -104.66115 | 6663 ft | 154 kts | 3° |
| 2026-05-06 11:38 | 39.78511 | -104.66102 | 6427 ft | 154 kts | 2° |
| 2026-05-06 11:39 | 39.79580 | -104.66090 | 6163 ft | 152 kts | 2° |
| 2026-05-06 11:39 | 39.80630 | -104.66078 | 5926 ft | 151 kts | 2° |
| 2026-05-06 11:39 | 39.81675 | -104.66066 | 5709 ft | 150 kts | 1° |
| 2026-05-06 11:39 | 39.82694 | -104.66060 | 5552 ft | 142 kts | 2° |
| 2026-05-06 11:40 | 39.83633 | -104.66049 | 5416 ft | 123 kts | 2° |
| 2026-05-06 11:40 | 39.84360 | -104.66038 | 5421 ft | 86 kts | 0° |
| 2026-05-06 11:40 | 39.84856 | -104.66033 | 5402 ft | 64 kts | 1° |
| 2026-05-06 11:40 | 39.85167 | -104.66078 | 5395 ft | 37 kts | 339° |
| 2026-05-06 11:41 | 39.85300 | -104.66163 | 5396 ft | 7 kts | 331° |
| 2026-05-06 11:41 | 39.85301 | -104.66164 | 5396 ft | 0 kts | 331° |
| 2026-05-06 11:43 | 39.85304 | -104.66165 | 5390 ft | 3 kts | 330° |
| 2026-05-06 11:44 | 39.85422 | -104.66231 | 5394 ft | 10 kts | 349° |
| 2026-05-06 11:44 | 39.85489 | -104.66244 | 5391 ft | 10 kts | 357° |
| 2026-05-06 11:44 | 39.85556 | -104.66241 | 5390 ft | 9 kts | 4° |
| 2026-05-06 11:44 | 39.85650 | -104.66238 | 5390 ft | 17 kts | 0° |
| 2026-05-06 11:45 | 39.85782 | -104.66237 | 5391 ft | 20 kts | 0° |
| 2026-05-06 11:45 | 39.85924 | -104.66234 | 5391 ft | 20 kts | 360° |
| 2026-05-06 11:45 | 39.86062 | -104.66232 | 5388 ft | 20 kts | 360° |
| 2026-05-06 11:45 | 39.86196 | -104.66231 | 5384 ft | 19 kts | 360° |
| 2026-05-06 11:46 | 39.86325 | -104.66230 | 5379 ft | 18 kts | 1° |
| 2026-05-06 11:46 | 39.86447 | -104.66228 | 5384 ft | 14 kts | 1° |
| 2026-05-06 11:46 | 39.86500 | -104.66298 | 5383 ft | 13 kts | 275° |
| 2026-05-06 11:46 | 39.86501 | -104.66410 | 5384 ft | 12 kts | 270° |
| 2026-05-06 11:47 | 39.86470 | -104.66502 | 5385 ft | 12 kts | 201° |
| 2026-05-06 11:47 | 39.86408 | -104.66553 | 5385 ft | 12 kts | 266° |
| 2026-05-06 11:47 | 39.86408 | -104.66658 | 5385 ft | 11 kts | 270° |
| 2026-05-06 11:47 | 39.86409 | -104.66760 | 5385 ft | 11 kts | 270° |
| 2026-05-06 11:48 | 39.86409 | -104.66859 | 5385 ft | 11 kts | 269° |
| 2026-05-06 11:48 | 39.86410 | -104.66956 | 5385 ft | 11 kts | 270° |
| 2026-05-06 11:48 | 39.86411 | -104.67054 | 5385 ft | 11 kts | 270° |
| 2026-05-06 11:48 | 39.86413 | -104.67159 | 5385 ft | 12 kts | 273° |
| 2026-05-06 11:49 | 39.86414 | -104.67274 | 5385 ft | 13 kts | 269° |
| 2026-05-06 11:49 | 39.86413 | -104.67398 | 5385 ft | 14 kts | 271° |
| 2026-05-06 11:49 | 39.86414 | -104.67500 | 5385 ft | 7 kts | 270° |
| 2026-05-06 11:49 | 39.86412 | -104.67564 | 5385 ft | 3 kts | 252° |
| 2026-05-06 11:50 | 39.86391 | -104.67571 | 5385 ft | 3 kts | 187° |
| 2026-05-06 11:50 | 39.86369 | -104.67572 | 5385 ft | 3 kts | 182° |
| 2026-05-06 11:50 | 39.86355 | -104.67573 | 5385 ft | 0 kts | 182° |